Página principal
METAR-TAF:

METAR-TAF

Aeroportos :

Kwethluk, Alasca, Estados Unidos

latitude: 60-47-25N, longitude: 161-26-37W, altura: 9 m

Observação actual do tempo

O boletim foi feito há 30 minutos, às 01:56 UTC
Vento 12 kt de noroeste
Temperatura 18°C
Humidade 56%
Pressão 1015 hPa
Visibilidade: 16.1 km
Nuvens dispersasa uma altura de 4000 ft

METAR: PFKW 230156Z AUTO 32012KT 10SM SCT040 18/09 A2996 RMK AO2 SLP146 T01830094

Hora: 18:26 (02:26 UTC)


TAF: em falta

Observações e previsões do tempo de mais de 4000 aeroportos (mensagens METAR e TAF).

As estações disponíveis são os pontos amarelos e vermelhos sobre o mapa.

Mova o rato sobre o mapa para ver o nome da estação.

Depois clique no ponto para visualizar as observações e previsões meteorológicas.

Para alterar o mapa : clique nos botões verdes com uma cruz preta para aumentar o zoom; no botão verde com uma pitada de zoom; ou nas setas verdes para mapas adjacentes.


METAR-TAF: